createdAt,value
2023-01-03T00:00:26.205Z,0.00
2023-01-03T00:01:26.106Z,0.00
2023-01-03T00:02:26.148Z,0.00
2023-01-03T00:03:26.045Z,0.00
2023-01-03T00:04:26.062Z,0.00
2023-01-03T00:05:25.935Z,0.00
2023-01-03T00:06:25.887Z,0.00
2023-01-03T00:07:25.841Z,0.00
2023-01-03T00:08:25.803Z,0.00
2023-01-03T00:09:25.753Z,0.00
2023-01-03T00:10:25.732Z,0.00
2023-01-03T00:11:25.666Z,0.00
2023-01-03T00:12:30.565Z,0.00
2023-01-03T00:13:25.590Z,0.00
2023-01-03T00:14:25.542Z,0.00
2023-01-03T00:15:25.507Z,0.00
2023-01-03T00:16:25.484Z,0.00
2023-01-03T00:17:25.473Z,0.00
2023-01-03T00:18:25.379Z,0.00
2023-01-03T00:19:25.327Z,0.00
2023-01-03T00:20:25.292Z,0.00
2023-01-03T00:21:25.253Z,0.00
2023-01-03T00:22:25.204Z,0.00
2023-01-03T00:23:25.153Z,0.00
2023-01-03T00:24:25.112Z,0.00
2023-01-03T00:25:25.065Z,0.00
2023-01-03T00:26:25.027Z,0.00
2023-01-03T00:27:24.997Z,0.00
2023-01-03T00:28:25.029Z,0.00
2023-01-03T00:29:24.899Z,0.00
2023-01-03T00:30:24.859Z,0.00
2023-01-03T00:31:24.841Z,0.00
2023-01-03T00:32:24.776Z,0.00
2023-01-03T00:33:24.735Z,0.00
2023-01-03T00:34:24.681Z,0.00
2023-01-03T00:35:24.649Z,0.00
2023-01-03T00:36:24.595Z,0.00
2023-01-03T00:37:24.552Z,0.00
2023-01-03T00:38:24.516Z,0.00
2023-01-03T00:39:24.462Z,0.00
2023-01-03T00:40:24.431Z,0.00
2023-01-03T00:41:24.389Z,0.00
2023-01-03T00:42:24.368Z,0.00
2023-01-03T00:43:24.307Z,0.00
2023-01-03T00:44:24.250Z,0.00
2023-01-03T00:45:25.708Z,0.00
2023-01-03T00:46:24.324Z,0.00
2023-01-03T00:47:24.142Z,0.00
2023-01-03T00:48:24.078Z,0.00
2023-01-03T00:49:24.032Z,0.00
2023-01-03T00:50:23.998Z,0.00
2023-01-03T00:51:23.946Z,0.00
2023-01-03T00:52:23.904Z,0.00
2023-01-03T00:53:23.882Z,0.00
2023-01-03T00:54:23.822Z,0.00
2023-01-03T00:55:23.771Z,0.00
2023-01-03T00:56:23.730Z,0.00
2023-01-03T00:57:23.684Z,0.00
2023-01-03T00:58:23.640Z,0.00
2023-01-03T00:59:23.611Z,0.00
2023-01-03T01:00:23.556Z,0.00
2023-01-03T01:01:23.627Z,0.00
2023-01-03T01:02:23.768Z,0.00
2023-01-03T01:03:23.640Z,0.00
2023-01-03T01:04:23.393Z,0.00
2023-01-03T01:05:23.347Z,0.00
2023-01-03T01:06:23.294Z,0.00
2023-01-03T01:07:23.249Z,0.00
2023-01-03T01:08:23.205Z,0.00
2023-01-03T01:09:23.163Z,0.00
2023-01-03T01:10:23.124Z,0.00
2023-01-03T01:11:23.086Z,0.00
2023-01-03T01:12:23.046Z,0.00
2023-01-03T01:13:22.988Z,0.00
2023-01-03T01:14:22.983Z,0.00
2023-01-03T01:15:22.905Z,0.00
2023-01-03T01:16:22.948Z,0.00
2023-01-03T01:17:23.276Z,0.00
2023-01-03T01:18:22.780Z,0.00
2023-01-03T01:19:22.735Z,0.00
2023-01-03T01:20:22.703Z,0.00
2023-01-03T01:21:22.642Z,0.00
2023-01-03T01:22:22.602Z,0.00
2023-01-03T01:23:22.550Z,0.00
2023-01-03T01:24:22.524Z,0.00
2023-01-03T01:25:22.470Z,0.00
2023-01-03T01:26:22.439Z,0.00
2023-01-03T01:27:22.377Z,0.00
2023-01-03T01:28:22.333Z,0.00
2023-01-03T01:29:22.291Z,0.00
2023-01-03T01:30:22.248Z,0.00
2023-01-03T01:31:22.277Z,0.00
2023-01-03T01:32:22.176Z,0.00
2023-01-03T01:33:22.110Z,0.00
2023-01-03T01:34:22.068Z,0.00
2023-01-03T01:35:22.044Z,0.00
2023-01-03T01:36:21.986Z,0.00
2023-01-03T01:37:21.948Z,0.00
2023-01-03T01:38:21.900Z,0.00
2023-01-03T01:39:21.857Z,0.00
2023-01-03T01:40:21.808Z,0.00
2023-01-03T01:41:21.777Z,0.00
2023-01-03T01:42:25.016Z,0.00
2023-01-03T01:43:21.688Z,0.00
2023-01-03T01:44:21.637Z,0.00
2023-01-03T01:45:21.590Z,0.00
2023-01-03T01:46:21.584Z,0.00
2023-01-03T01:47:21.498Z,0.00
2023-01-03T01:48:21.458Z,0.00
2023-01-03T01:49:21.426Z,0.00
2023-01-03T01:50:21.372Z,0.00
2023-01-03T01:51:21.329Z,0.00
2023-01-03T01:52:21.281Z,0.00
2023-01-03T01:53:21.238Z,0.00
2023-01-03T01:54:21.195Z,0.00
2023-01-03T01:55:21.178Z,0.00
2023-01-03T01:56:21.108Z,0.00
2023-01-03T01:57:21.064Z,0.00
2023-01-03T01:58:21.026Z,0.00
2023-01-03T01:59:20.973Z,0.00
2023-01-03T02:00:20.929Z,0.00
2023-01-03T02:01:20.989Z,0.00
2023-01-03T02:02:21.040Z,0.00
2023-01-03T02:03:20.875Z,0.00
2023-01-03T02:04:20.753Z,0.00
2023-01-03T02:05:20.710Z,0.00
2023-01-03T02:06:20.665Z,0.00
2023-01-03T02:07:20.635Z,0.00
2023-01-03T02:08:20.576Z,0.00
2023-01-03T02:09:20.534Z,0.00
2023-01-03T02:10:20.492Z,0.00
2023-01-03T02:11:20.451Z,0.00
2023-01-03T02:12:20.398Z,0.00
2023-01-03T02:13:20.374Z,0.00
2023-01-03T02:14:20.310Z,0.00
2023-01-03T02:15:20.275Z,0.00
2023-01-03T02:16:20.321Z,0.00
2023-01-03T02:17:20.186Z,0.00
2023-01-03T02:18:20.133Z,0.00
2023-01-03T02:19:20.111Z,0.00
2023-01-03T02:20:20.048Z,0.00
2023-01-03T02:21:20.486Z,0.00
2023-01-03T02:22:19.959Z,0.00
2023-01-03T02:23:19.931Z,0.00
2023-01-03T02:24:19.877Z,0.00
2023-01-03T02:25:19.831Z,0.00
2023-01-03T02:26:19.785Z,0.00
2023-01-03T02:27:19.740Z,0.00
2023-01-03T02:28:19.694Z,0.00
2023-01-03T02:29:19.682Z,0.00
2023-01-03T02:30:19.607Z,0.00
2023-01-03T02:31:19.620Z,0.00
2023-01-03T02:32:19.518Z,0.00
2023-01-03T02:33:19.484Z,0.00
2023-01-03T02:34:19.427Z,0.00
2023-01-03T02:35:19.399Z,0.00
2023-01-03T02:36:19.343Z,0.00
2023-01-03T02:37:19.302Z,0.00
2023-01-03T02:38:19.361Z,0.00
2023-01-03T02:39:23.693Z,0.00
2023-01-03T02:40:19.172Z,0.00
2023-01-03T02:41:19.128Z,0.00
2023-01-03T02:42:19.078Z,0.00
2023-01-03T02:43:19.038Z,0.00
2023-01-03T02:44:18.985Z,0.00
2023-01-03T02:45:18.951Z,0.00
2023-01-03T02:46:18.980Z,0.00
2023-01-03T02:47:18.869Z,0.00
2023-01-03T02:48:18.815Z,0.00
2023-01-03T02:49:18.770Z,0.00
2023-01-03T02:50:18.726Z,0.00
2023-01-03T02:51:18.687Z,0.00
2023-01-03T02:52:18.637Z,0.00
2023-01-03T02:53:18.598Z,0.00
2023-01-03T02:54:18.546Z,0.00
2023-01-03T02:55:18.510Z,0.00
2023-01-03T02:56:18.457Z,0.00
2023-01-03T02:57:18.435Z,0.00
2023-01-03T02:58:18.368Z,0.00
2023-01-03T02:59:18.330Z,0.00
2023-01-03T03:00:18.281Z,0.00
2023-01-03T03:01:18.399Z,0.00
2023-01-03T03:02:18.354Z,0.00
2023-01-03T03:03:18.259Z,0.00
2023-01-03T03:04:18.097Z,0.00
2023-01-03T03:05:18.080Z,0.00
2023-01-03T03:06:18.016Z,0.00
2023-01-03T03:07:17.981Z,0.00
2023-01-03T03:08:17.935Z,0.00
2023-01-03T03:09:17.885Z,0.00
2023-01-03T03:10:17.843Z,0.00
2023-01-03T03:11:17.793Z,0.00
2023-01-03T03:12:17.749Z,0.00
2023-01-03T03:13:17.703Z,0.00
2023-01-03T03:14:17.670Z,0.00
2023-01-03T03:15:17.630Z,0.00
2023-01-03T03:16:17.620Z,0.00
2023-01-03T03:17:17.549Z,0.00
2023-01-03T03:18:17.490Z,0.00
2023-01-03T03:19:17.435Z,0.00
2023-01-03T03:20:17.413Z,0.00
2023-01-03T03:21:17.353Z,0.00
2023-01-03T03:22:17.307Z,0.00
2023-01-03T03:23:17.267Z,0.00
2023-01-03T03:24:17.224Z,0.00
2023-01-03T03:25:17.175Z,0.00
2023-01-03T03:26:17.151Z,0.00
2023-01-03T03:27:17.082Z,0.00
2023-01-03T03:28:17.037Z,0.00
2023-01-03T03:29:16.993Z,0.00
2023-01-03T03:30:16.948Z,0.00
2023-01-03T03:31:16.985Z,0.00
2023-01-03T03:32:16.883Z,0.00
2023-01-03T03:33:16.832Z,0.00
2023-01-03T03:34:16.769Z,0.00
2023-01-03T03:35:16.734Z,0.00
2023-01-03T03:36:16.679Z,0.00
2023-01-03T03:37:16.636Z,0.00
2023-01-03T03:38:16.606Z,0.00
2023-01-03T03:39:16.556Z,0.00
2023-01-03T03:40:16.557Z,0.00
2023-01-03T03:41:16.491Z,0.00
2023-01-03T03:42:16.433Z,0.00
2023-01-03T03:43:16.375Z,0.00
2023-01-03T03:44:16.339Z,0.00
2023-01-03T03:45:16.298Z,0.00
2023-01-03T03:46:16.297Z,0.00
2023-01-03T03:47:16.292Z,0.00
2023-01-03T03:48:16.172Z,0.00
2023-01-03T03:49:16.104Z,0.00
2023-01-03T03:50:16.057Z,0.00
2023-01-03T03:51:16.015Z,0.00
2023-01-03T03:52:15.975Z,0.00
2023-01-03T03:53:15.936Z,0.00
2023-01-03T03:54:15.879Z,0.00
2023-01-03T03:55:15.834Z,0.00
2023-01-03T03:56:15.790Z,0.00
2023-01-03T03:57:15.747Z,0.00
2023-01-03T03:58:15.708Z,0.00
2023-01-03T03:59:15.674Z,0.00
2023-01-03T04:00:15.606Z,0.00
2023-01-03T04:01:15.624Z,0.00
2023-01-03T04:02:15.681Z,0.00
2023-01-03T04:03:15.671Z,0.00
2023-01-03T04:04:15.449Z,0.00
2023-01-03T04:05:15.398Z,0.00
2023-01-03T04:06:15.353Z,0.00
2023-01-03T04:07:15.298Z,0.00
2023-01-03T04:08:15.252Z,0.00
2023-01-03T04:09:15.210Z,0.00
2023-01-03T04:10:15.180Z,0.00
2023-01-03T04:11:15.120Z,0.00
2023-01-03T04:12:15.076Z,0.00
2023-01-03T04:13:15.030Z,0.00
2023-01-03T04:14:14.996Z,0.00
2023-01-03T04:15:14.943Z,0.00
2023-01-03T04:16:14.986Z,0.00
2023-01-03T04:17:14.855Z,0.00
2023-01-03T04:18:14.806Z,0.00
2023-01-03T04:19:14.767Z,0.00
2023-01-03T04:20:14.713Z,0.00
2023-01-03T04:21:20.495Z,0.00
2023-01-03T04:22:14.627Z,0.00
2023-01-03T04:23:14.584Z,0.00
2023-01-03T04:24:14.539Z,0.00
2023-01-03T04:25:14.492Z,0.00
2023-01-03T04:26:14.449Z,0.00
2023-01-03T04:27:14.408Z,0.00
2023-01-03T04:28:14.361Z,0.00
2023-01-03T04:29:14.322Z,0.00
2023-01-03T04:30:14.277Z,0.00
2023-01-03T04:31:14.292Z,0.00
2023-01-03T04:32:14.230Z,0.00
2023-01-03T04:33:14.132Z,0.00
2023-01-03T04:34:14.092Z,0.00
2023-01-03T04:35:14.057Z,0.00
2023-01-03T04:36:13.993Z,0.00
2023-01-03T04:37:14.028Z,0.00
2023-01-03T04:38:13.915Z,0.00
2023-01-03T04:39:13.882Z,0.00
2023-01-03T04:40:13.832Z,0.00
2023-01-03T04:41:13.788Z,0.00
2023-01-03T04:42:13.727Z,0.00
2023-01-03T04:43:13.683Z,0.00
2023-01-03T04:44:13.634Z,0.00
2023-01-03T04:45:13.591Z,0.00
2023-01-03T04:46:13.590Z,0.00
2023-01-03T04:47:13.515Z,0.00
2023-01-03T04:48:13.474Z,0.00
2023-01-03T04:49:13.420Z,0.00
2023-01-03T04:50:13.366Z,0.00
2023-01-03T04:51:13.322Z,0.00
2023-01-03T04:52:13.282Z,0.00
2023-01-03T04:53:13.233Z,0.00
2023-01-03T04:54:13.226Z,0.00
2023-01-03T04:55:13.173Z,0.00
2023-01-03T04:56:13.107Z,0.00
2023-01-03T04:57:13.054Z,0.00
2023-01-03T04:58:13.008Z,0.00
2023-01-03T04:59:12.969Z,0.00
2023-01-03T05:00:12.911Z,0.00
2023-01-03T05:01:13.035Z,0.00
2023-01-03T05:02:12.891Z,0.00
2023-01-03T05:03:12.787Z,0.00
2023-01-03T05:04:12.778Z,0.00
2023-01-03T05:05:12.692Z,0.00
2023-01-03T05:06:12.648Z,0.00
2023-01-03T05:07:12.613Z,0.00
2023-01-03T05:08:12.564Z,0.00
2023-01-03T05:09:12.515Z,0.00
2023-01-03T05:10:12.472Z,0.00
2023-01-03T05:11:12.431Z,0.00
2023-01-03T05:12:12.440Z,0.00
2023-01-03T05:13:12.331Z,0.00
2023-01-03T05:14:14.419Z,0.00
2023-01-03T05:15:12.244Z,0.00
2023-01-03T05:16:12.350Z,0.00
2023-01-03T05:17:12.160Z,0.00
2023-01-03T05:18:12.102Z,0.00
2023-01-03T05:19:12.678Z,0.00
2023-01-03T05:20:12.011Z,0.00
2023-01-03T05:21:11.976Z,0.00
2023-01-03T05:22:11.932Z,0.00
2023-01-03T05:23:11.880Z,0.00
2023-01-03T05:24:11.838Z,0.00
2023-01-03T05:25:11.790Z,0.00
2023-01-03T05:26:11.743Z,0.00
2023-01-03T05:27:20.770Z,0.00
2023-01-03T05:28:17.126Z,0.00
2023-01-03T05:29:11.611Z,0.00
2023-01-03T05:30:11.578Z,0.00
2023-01-03T05:31:11.550Z,0.00
2023-01-03T05:32:11.590Z,0.00
2023-01-03T05:33:11.534Z,0.00
2023-01-03T05:34:11.431Z,0.00
2023-01-03T05:35:11.369Z,0.00
2023-01-03T05:36:11.322Z,0.00
2023-01-03T05:37:11.259Z,0.00
2023-01-03T05:38:11.220Z,0.00
2023-01-03T05:39:11.189Z,0.00
2023-01-03T05:40:11.144Z,0.00
2023-01-03T05:41:11.108Z,0.00
2023-01-03T05:42:11.094Z,0.00
2023-01-03T05:43:11.016Z,0.00
2023-01-03T05:44:11.056Z,0.00
2023-01-03T05:45:10.905Z,0.00
2023-01-03T05:46:10.921Z,0.00
2023-01-03T05:47:10.881Z,0.00
2023-01-03T05:48:10.857Z,0.00
2023-01-03T05:49:10.763Z,0.00
2023-01-03T05:50:10.725Z,0.00
2023-01-03T05:51:10.698Z,0.00
2023-01-03T05:52:10.650Z,0.00
2023-01-03T05:53:10.574Z,0.00
2023-01-03T05:54:10.557Z,0.00
2023-01-03T05:55:10.637Z,0.00
2023-01-03T05:56:10.502Z,0.00
2023-01-03T05:57:10.448Z,0.00
2023-01-03T05:58:10.339Z,0.00
2023-01-03T05:59:10.347Z,0.00
2023-01-03T06:00:10.275Z,0.00
2023-01-03T06:01:10.264Z,0.00
2023-01-03T06:02:10.301Z,0.00
2023-01-03T06:03:10.350Z,0.00
2023-01-03T06:04:10.122Z,0.00
2023-01-03T06:05:10.080Z,0.00
2023-01-03T06:06:10.003Z,0.00
2023-01-03T06:07:09.916Z,0.00
2023-01-03T06:08:09.878Z,0.00
2023-01-03T06:09:09.834Z,0.00
2023-01-03T06:10:09.842Z,0.00
2023-01-03T06:11:09.762Z,0.00
2023-01-03T06:12:09.706Z,0.00
2023-01-03T06:13:09.695Z,0.00
2023-01-03T06:14:09.649Z,0.00
2023-01-03T06:15:09.577Z,0.00
2023-01-03T06:16:09.596Z,0.00
2023-01-03T06:17:09.779Z,0.00
2023-01-03T06:18:09.533Z,0.00
2023-01-03T06:19:09.510Z,0.00
2023-01-03T06:20:09.472Z,0.00
2023-01-03T06:21:10.216Z,0.00
2023-01-03T06:22:11.018Z,0.00
2023-01-03T06:23:09.349Z,0.00
2023-01-03T06:24:09.231Z,0.00
2023-01-03T06:25:09.733Z,0.00
2023-01-03T06:26:09.142Z,0.00
2023-01-03T06:27:09.100Z,0.00
2023-01-03T06:28:10.215Z,0.00
2023-01-03T06:29:08.958Z,0.00
2023-01-03T06:30:09.729Z,0.00
2023-01-03T06:31:08.968Z,0.00
2023-01-03T06:32:09.766Z,0.00
2023-01-03T06:33:08.892Z,0.00
2023-01-03T06:34:08.822Z,0.00
2023-01-03T06:35:08.693Z,0.00
2023-01-03T06:36:08.687Z,0.00
2023-01-03T06:37:08.609Z,0.00
2023-01-03T06:38:08.607Z,0.00
2023-01-03T06:39:08.487Z,0.00
2023-01-03T06:40:08.447Z,0.00
2023-01-03T06:41:08.404Z,0.00
2023-01-03T06:42:08.371Z,0.00
2023-01-03T06:43:08.332Z,0.00
2023-01-03T06:44:09.221Z,0.00
2023-01-03T06:45:08.241Z,0.00
2023-01-03T06:46:08.233Z,0.00
2023-01-03T06:47:08.176Z,0.00
2023-01-03T06:48:08.091Z,0.00
2023-01-03T06:49:08.061Z,0.00
2023-01-03T06:50:08.014Z,0.00
2023-01-03T06:51:07.989Z,0.00
2023-01-03T06:52:07.935Z,0.00
2023-01-03T06:53:07.869Z,0.00
2023-01-03T06:54:07.842Z,0.00
2023-01-03T06:55:07.784Z,0.00
2023-01-03T06:56:07.739Z,0.00
2023-01-03T06:57:07.671Z,0.00
2023-01-03T06:58:07.639Z,0.00
2023-01-03T06:59:07.602Z,0.00
2023-01-03T07:00:07.583Z,0.00
2023-01-03T07:01:07.679Z,0.00
2023-01-03T07:02:07.614Z,0.00
2023-01-03T07:03:11.423Z,0.00
2023-01-03T07:04:07.427Z,0.00
2023-01-03T07:05:07.390Z,0.00
2023-01-03T07:06:07.281Z,0.00
2023-01-03T07:07:07.253Z,0.00
2023-01-03T07:08:07.288Z,0.00
2023-01-03T07:09:07.145Z,0.00
2023-01-03T07:10:07.158Z,0.00
2023-01-03T07:11:07.093Z,0.00
2023-01-03T07:12:07.044Z,0.00
2023-01-03T07:13:06.990Z,0.00
2023-01-03T07:14:06.969Z,0.00
2023-01-03T07:15:06.908Z,0.00
2023-01-03T07:16:07.021Z,0.00
2023-01-03T07:17:06.817Z,0.00
2023-01-03T07:18:06.785Z,0.00
2023-01-03T07:19:06.738Z,0.00
2023-01-03T07:20:06.664Z,0.00
2023-01-03T07:21:06.661Z,0.00
2023-01-03T07:22:06.613Z,0.00
2023-01-03T07:23:06.565Z,0.00
2023-01-03T07:24:06.596Z,0.00
2023-01-03T07:25:06.461Z,0.00
2023-01-03T07:26:06.405Z,0.00
2023-01-03T07:27:06.393Z,0.00
2023-01-03T07:28:09.095Z,0.00
2023-01-03T07:29:08.844Z,0.00
2023-01-03T07:30:27.235Z,0.00
2023-01-03T07:31:12.864Z,0.00
2023-01-03T07:32:06.147Z,0.00
2023-01-03T07:33:06.828Z,5.63
2023-01-03T07:34:06.245Z,5.63
2023-01-03T07:35:14.366Z,5.63
2023-01-03T07:36:11.287Z,5.63
2023-01-03T07:37:05.909Z,11.25
2023-01-03T07:38:05.866Z,11.25
2023-01-03T07:39:05.825Z,16.88
2023-01-03T07:40:05.780Z,16.88
2023-01-03T07:41:05.736Z,16.88
2023-01-03T07:42:05.696Z,16.88
2023-01-03T07:43:05.644Z,16.88
2023-01-03T07:44:05.631Z,16.88
2023-01-03T07:45:05.572Z,16.88
2023-01-03T07:46:05.531Z,22.50
2023-01-03T07:47:05.473Z,22.50
2023-01-03T07:48:05.424Z,22.50
2023-01-03T07:49:11.176Z,28.13
2023-01-03T07:50:05.353Z,28.13
2023-01-03T07:51:05.296Z,28.13
2023-01-03T07:52:05.288Z,28.13
2023-01-03T07:55:47.747Z,33.75
2023-01-03T07:56:47.588Z,39.38
2023-01-03T07:57:47.560Z,39.38
2023-01-03T07:58:47.688Z,39.38
2023-01-03T08:01:12.549Z,50.63
2023-01-03T08:02:12.565Z,50.63
2023-01-03T08:03:20.023Z,56.25
2023-01-03T08:04:12.166Z,56.25
2023-01-03T08:05:12.184Z,56.25
2023-01-03T08:06:12.080Z,61.88
2023-01-03T08:07:12.054Z,61.88
2023-01-03T08:08:11.983Z,61.88
2023-01-03T08:09:11.960Z,56.25
2023-01-03T08:10:11.896Z,56.25
2023-01-03T08:11:11.861Z,50.63
2023-01-03T08:14:01.305Z,45.00
2023-01-03T08:15:01.235Z,50.63
2023-01-03T08:16:01.262Z,50.63
2023-01-03T08:17:01.149Z,50.63
2023-01-03T08:18:01.106Z,56.25
2023-01-03T08:19:01.078Z,61.88
2023-01-03T08:20:01.022Z,61.88
2023-01-03T08:21:00.970Z,67.50
2023-01-03T08:22:00.938Z,67.50
2023-01-03T08:23:00.891Z,73.13
2023-01-03T08:24:00.839Z,78.75
2023-01-03T08:25:00.807Z,84.38
2023-01-03T08:26:00.767Z,84.38
2023-01-03T08:27:00.716Z,84.38
2023-01-03T08:28:00.684Z,84.38
2023-01-03T08:29:00.631Z,84.38
2023-01-03T08:30:00.588Z,84.38
2023-01-03T08:31:00.589Z,84.38
2023-01-03T08:32:00.551Z,84.38
2023-01-03T08:33:00.457Z,90.00
2023-01-03T08:34:00.408Z,101.25
2023-01-03T08:35:00.369Z,112.50
2023-01-03T08:36:00.318Z,135.00
2023-01-03T08:37:00.281Z,146.25
2023-01-03T08:38:00.253Z,151.88
2023-01-03T08:39:00.193Z,157.50
2023-01-03T08:40:00.165Z,151.88
2023-01-03T08:41:00.136Z,168.75
2023-01-03T08:42:00.083Z,135.00
2023-01-03T08:43:00.027Z,140.63
2023-01-03T08:43:59.975Z,140.63
2023-01-03T08:44:59.944Z,146.25
2023-01-03T08:45:59.893Z,146.25
2023-01-03T08:46:59.985Z,151.88
2023-01-03T08:47:59.800Z,157.50
2023-01-03T08:48:59.776Z,168.75
2023-01-03T08:49:59.721Z,174.38
2023-01-03T08:50:59.697Z,168.75
2023-01-03T08:51:59.630Z,157.50
2023-01-03T08:52:59.601Z,157.50
2023-01-03T08:53:59.549Z,151.88
2023-01-03T08:54:59.508Z,151.88
2023-01-03T08:55:59.469Z,151.88
2023-01-03T08:56:59.435Z,151.88
2023-01-03T08:57:59.372Z,157.50
2023-01-03T09:02:43.835Z,596.25
2023-01-03T09:03:43.627Z,601.88
2023-01-03T09:04:43.360Z,371.25
2023-01-03T09:05:43.309Z,534.38
2023-01-03T09:06:43.265Z,500.63
2023-01-03T09:07:43.242Z,168.75
2023-01-03T09:08:43.199Z,135.00
2023-01-03T09:09:43.145Z,123.75
2023-01-03T09:12:40.427Z,135.00
2023-01-03T09:23:10.063Z,219.38
2023-01-03T09:24:10.012Z,241.88
2023-01-03T09:25:09.957Z,309.38
2023-01-03T09:33:51.234Z,388.13
2023-01-03T09:34:51.174Z,472.50
2023-01-03T09:39:21.541Z,939.38
2023-01-03T09:40:21.532Z,292.50
2023-01-03T09:41:21.413Z,180.00
2023-01-03T09:42:21.372Z,123.75
2023-01-03T09:48:18.774Z,135.00
2023-01-03T09:49:18.712Z,151.88
2023-01-03T09:50:31.861Z,174.38
2023-01-03T09:51:25.665Z,191.25
2023-01-03T09:52:18.581Z,202.50
2023-01-03T09:53:18.544Z,208.13
2023-01-03T09:54:18.511Z,213.75
2023-01-03T09:55:18.462Z,202.50
2023-01-03T09:56:18.414Z,185.63
2023-01-03T09:57:23.198Z,163.13
2023-01-03T09:58:18.336Z,146.25
2023-01-03T09:59:18.314Z,135.00
2023-01-03T10:00:18.256Z,123.75
2023-01-03T10:01:18.346Z,112.50
2023-01-03T10:02:18.259Z,106.88
2023-01-03T10:03:18.208Z,101.25
2023-01-03T10:04:18.208Z,106.88
2023-01-03T10:05:18.047Z,106.88
2023-01-03T10:06:18.015Z,112.50
2023-01-03T10:07:17.960Z,129.38
2023-01-03T10:08:17.932Z,151.88
2023-01-03T10:09:17.877Z,163.13
2023-01-03T10:10:17.831Z,163.13
2023-01-03T10:11:17.882Z,168.75
2023-01-03T10:12:17.759Z,185.63
2023-01-03T10:13:20.194Z,219.38
2023-01-03T10:14:17.658Z,236.25
2023-01-03T10:15:17.618Z,292.50
2023-01-03T10:16:17.611Z,506.25
2023-01-03T10:17:17.536Z,703.13
2023-01-03T10:18:17.507Z,708.75
2023-01-03T10:19:17.454Z,568.13
2023-01-03T10:20:17.415Z,438.75
2023-01-03T10:21:17.394Z,376.88
2023-01-03T10:22:17.322Z,365.63
2023-01-03T10:23:17.293Z,472.50
2023-01-03T10:24:17.252Z,832.50
2023-01-03T10:25:17.206Z,624.38
2023-01-03T10:26:17.175Z,686.25
2023-01-03T10:27:17.121Z,624.38
2023-01-03T10:28:17.081Z,489.38
2023-01-03T10:29:17.042Z,697.50
2023-01-03T10:30:17.005Z,703.13
2023-01-03T10:31:16.983Z,725.63
2023-01-03T10:32:16.932Z,770.63
2023-01-03T10:33:16.871Z,821.25
2023-01-03T10:34:16.827Z,725.63
2023-01-03T10:35:16.786Z,826.88
2023-01-03T10:36:16.975Z,787.50
2023-01-03T10:37:16.724Z,787.50
2023-01-03T10:38:16.662Z,815.63
2023-01-03T10:39:16.635Z,866.25
2023-01-03T10:40:16.599Z,663.75
2023-01-03T10:41:16.571Z,618.75
2023-01-03T10:42:16.517Z,483.75
2023-01-03T10:43:16.473Z,466.88
2023-01-03T10:44:16.445Z,433.13
2023-01-03T10:45:16.398Z,450.00
2023-01-03T10:48:01.427Z,421.88
2023-01-03T10:49:30.773Z,438.75
2023-01-03T10:50:01.322Z,399.38
2023-01-03T10:51:01.285Z,354.38
2023-01-03T10:52:01.249Z,331.88
2023-01-03T10:53:01.199Z,320.63
2023-01-03T10:54:01.194Z,315.00
2023-01-03T10:55:01.139Z,303.75
2023-01-03T10:56:01.085Z,258.75
2023-01-03T10:57:01.053Z,241.88
2023-01-03T10:58:01.023Z,247.50
2023-01-03T10:59:00.983Z,281.25
2023-01-03T11:00:00.946Z,315.00
2023-01-03T11:01:00.912Z,286.88
2023-01-03T11:02:01.050Z,275.63
2023-01-03T11:03:00.899Z,286.88
2023-01-03T11:04:00.830Z,298.13
2023-01-03T11:05:00.725Z,298.13
2023-01-03T11:06:00.713Z,270.00
2023-01-03T11:07:00.643Z,236.25
2023-01-03T11:08:00.597Z,213.75
2023-01-03T11:09:00.567Z,202.50
2023-01-03T11:10:00.527Z,191.25
2023-01-03T11:11:00.514Z,191.25
2023-01-03T11:12:00.455Z,185.63
2023-01-03T11:13:00.445Z,185.63
2023-01-03T11:14:00.363Z,191.25
2023-01-03T11:15:00.327Z,191.25
2023-01-03T11:16:00.291Z,185.63
2023-01-03T11:17:00.326Z,168.75
2023-01-03T11:18:00.211Z,168.75
2023-01-03T11:19:00.159Z,157.50
2023-01-03T11:20:00.149Z,146.25
2023-01-03T11:21:00.115Z,151.88
2023-01-03T11:22:00.044Z,140.63
2023-01-03T11:23:00.007Z,140.63
2023-01-03T11:23:59.967Z,140.63
2023-01-03T11:24:59.920Z,135.00
2023-01-03T11:25:59.880Z,140.63
2023-01-03T11:26:59.841Z,123.75
2023-01-03T11:27:59.795Z,118.13
2023-01-03T11:28:59.760Z,129.38
2023-01-03T11:29:59.734Z,123.75
2023-01-03T11:30:59.688Z,112.50
2023-01-03T11:31:59.679Z,106.88
2023-01-03T11:43:15.820Z,185.63
2023-01-03T11:44:15.771Z,185.63
2023-01-03T11:45:15.731Z,157.50
2023-01-03T11:46:15.735Z,135.00
2023-01-03T11:47:15.657Z,123.75
2023-01-03T11:48:15.599Z,106.88
2023-01-03T11:56:06.658Z,196.88
2023-01-03T11:57:06.599Z,208.13
2023-01-03T11:58:06.578Z,236.25
2023-01-03T11:59:06.514Z,241.88
2023-01-03T12:00:06.478Z,258.75
2023-01-03T12:01:06.637Z,264.38
2023-01-03T12:02:06.649Z,275.63
2023-01-03T12:03:06.612Z,270.00
2023-01-03T12:04:06.375Z,275.63
2023-01-03T12:05:06.277Z,281.25
2023-01-03T12:06:13.908Z,281.25
2023-01-03T12:07:37.457Z,292.50
2023-01-03T12:08:06.283Z,292.50
2023-01-03T12:09:12.406Z,337.50
2023-01-03T12:10:09.124Z,365.63
2023-01-03T12:12:44.666Z,354.38
2023-01-03T12:15:54.678Z,388.13
2023-01-03T12:16:54.060Z,331.88
2023-01-03T12:17:54.066Z,320.63
2023-01-03T12:18:54.026Z,326.25
2023-01-03T12:19:53.986Z,343.13
2023-01-03T12:20:53.902Z,360.00
2023-01-03T12:21:53.864Z,365.63
2023-01-03T12:22:53.817Z,376.88
2023-01-03T12:23:53.790Z,348.75
2023-01-03T12:24:55.788Z,354.38
2023-01-03T12:25:53.714Z,393.75
2023-01-03T12:26:53.678Z,376.88
2023-01-03T12:27:53.607Z,371.25
2023-01-03T12:28:53.588Z,388.13
2023-01-03T12:29:53.528Z,393.75
2023-01-03T12:30:53.537Z,382.50
2023-01-03T12:31:53.490Z,365.63
2023-01-03T12:32:53.419Z,354.38
2023-01-03T12:33:53.377Z,393.75
2023-01-03T12:34:53.383Z,686.25
2023-01-03T12:35:53.281Z,506.25
2023-01-03T12:36:53.251Z,405.00
2023-01-03T12:37:53.200Z,365.63
2023-01-03T12:38:53.164Z,343.13
2023-01-03T12:39:53.122Z,326.25
2023-01-03T12:40:53.107Z,331.88
2023-01-03T12:41:53.039Z,365.63
2023-01-03T12:42:53.007Z,388.13
2023-01-03T12:43:52.982Z,388.13
2023-01-03T12:44:52.923Z,331.88
2023-01-03T12:45:52.895Z,270.00
2023-01-03T12:46:52.934Z,241.88
2023-01-03T12:47:53.639Z,236.25
2023-01-03T12:48:52.783Z,236.25
2023-01-03T12:49:52.718Z,270.00
2023-01-03T12:50:52.683Z,292.50
2023-01-03T12:51:52.643Z,247.50
2023-01-03T12:52:52.613Z,219.38
2023-01-03T12:53:52.556Z,208.13
2023-01-03T12:54:52.521Z,196.88
2023-01-03T12:55:52.484Z,196.88
2023-01-03T12:56:52.434Z,191.25
2023-01-03T12:57:52.397Z,191.25
2023-01-03T12:58:53.263Z,191.25
2023-01-03T12:59:52.330Z,185.63
2023-01-03T13:00:52.286Z,185.63
2023-01-03T13:01:52.289Z,185.63
2023-01-03T13:02:52.395Z,180.00
2023-01-03T13:03:52.229Z,180.00
2023-01-03T13:04:52.114Z,180.00
2023-01-03T13:05:52.078Z,180.00
2023-01-03T13:06:52.061Z,180.00
2023-01-03T13:07:52.000Z,180.00
2023-01-03T13:08:51.948Z,180.00
2023-01-03T13:09:57.442Z,180.00
2023-01-03T13:10:51.867Z,174.38
2023-01-03T13:11:51.852Z,180.00
2023-01-03T13:12:51.805Z,180.00
2023-01-03T13:13:51.761Z,180.00
2023-01-03T13:14:51.703Z,180.00
2023-01-03T13:15:51.763Z,174.38
2023-01-03T13:16:51.678Z,174.38
2023-01-03T13:17:51.585Z,180.00
2023-01-03T13:18:51.540Z,180.00
2023-01-03T13:19:51.496Z,196.88
2023-01-03T13:20:51.473Z,208.13
2023-01-03T13:21:51.518Z,208.13
2023-01-03T13:22:51.385Z,202.50
2023-01-03T13:23:51.347Z,202.50
2023-01-03T13:24:51.320Z,208.13
2023-01-03T13:25:51.248Z,219.38
2023-01-03T13:26:51.767Z,236.25
2023-01-03T13:27:51.186Z,208.13
2023-01-03T13:28:51.147Z,191.25
2023-01-03T13:29:51.094Z,180.00
2023-01-03T13:30:51.087Z,174.38
2023-01-03T13:31:51.085Z,174.38
2023-01-03T13:32:51.019Z,168.75
2023-01-03T13:33:50.928Z,174.38
2023-01-03T13:34:50.876Z,174.38
2023-01-03T13:35:50.841Z,185.63
2023-01-03T13:36:50.825Z,185.63
2023-01-03T13:37:50.772Z,208.13
2023-01-03T13:38:50.727Z,219.38
2023-01-03T13:39:50.713Z,219.38
2023-01-03T13:41:17.023Z,219.38
2023-01-03T13:41:50.590Z,230.63
2023-01-03T13:42:50.549Z,247.50
2023-01-03T13:43:50.507Z,253.13
2023-01-03T13:44:50.471Z,241.88
2023-01-03T13:45:50.441Z,213.75
2023-01-03T13:46:50.437Z,185.63
2023-01-03T13:47:50.335Z,180.00
2023-01-03T13:48:50.351Z,191.25
2023-01-03T13:49:53.873Z,180.00
2023-01-03T13:50:50.236Z,168.75
2023-01-03T13:51:50.262Z,174.38
2023-01-03T13:52:50.140Z,180.00
2023-01-03T13:53:50.090Z,185.63
2023-01-03T13:54:50.053Z,191.25
2023-01-03T13:55:54.761Z,208.13
2023-01-03T13:56:49.977Z,196.88
2023-01-03T13:57:49.931Z,191.25